Time;durP1;ratioP1;P1;durP2;ratioP2;P2;SDS_P1;SDS_P2;PMS_P1;PMS_P2;Temp;Humidity;BMP_temperature;BMP_pressure;BME280_temperature;BME280_humidity;BME280_pressure;Samples;Min_cycle;Max_cycle;Signal;HPM_P1;HPM_P2
2021/07/21 00:00:13;;;;;;;8.30;5.63;;;;;;;18.96;65.00;101631.94;5071625;28;20033;-79
2021/07/21 00:02:39;;;;;;;8.35;5.32;;;;;;;18.81;64.91;101632.59;5082043;28;20020;-80
2021/07/21 00:05:09;;;;;;;10.07;5.88;;;;;;;18.91;64.14;101629.69;5078050;28;20031;-80
2021/07/21 00:07:35;;;;;;;10.37;5.50;;;;;;;19.10;63.64;101635.84;5074424;28;20068;-80
2021/07/21 00:10:01;;;;;;;10.90;5.75;;;;;;;19.06;63.41;101632.59;5085689;28;20066;-79
2021/07/21 00:15:11;;;;;;;11.35;5.72;;;;;;;18.64;64.95;101643.59;5077280;28;20063;-79
2021/07/21 00:17:38;;;;;;;8.23;5.53;;;;;;;18.70;64.94;101641.06;5082730;28;20027;-80
2021/07/21 00:20:10;;;;;;;7.97;5.30;;;;;;;18.81;64.25;101643.50;5071304;28;20511;-79
2021/07/21 00:22:40;;;;;;;8.15;5.63;;;;;;;18.73;64.45;101637.16;5082112;28;20028;-80
2021/07/21 00:25:07;;;;;;;9.73;5.72;;;;;;;18.66;64.81;101627.94;5075478;28;20031;-79
2021/07/21 00:27:34;;;;;;;7.60;5.18;;;;;;;18.61;64.90;101628.44;5074876;28;20037;-79
2021/07/21 00:29:59;;;;;;;8.07;5.45;;;;;;;18.62;65.06;101623.84;5084423;28;20035;-80
2021/07/21 00:32:24;;;;;;;9.40;6.03;;;;;;;18.69;64.56;101616.69;5070278;28;20024;-79
2021/07/21 00:34:50;;;;;;;8.95;5.03;;;;;;;18.35;65.16;101623.09;5079981;28;20135;-79
2021/07/21 00:37:15;;;;;;;7.28;4.90;;;;;;;18.61;64.65;101623.00;5078628;28;20032;-79
2021/07/21 00:39:41;;;;;;;10.20;5.60;;;;;;;18.47;64.74;101618.19;5072952;28;20036;-79
2021/07/21 00:42:07;;;;;;;9.93;5.38;;;;;;;18.23;65.69;101621.69;5083642;28;20024;-79
2021/07/21 00:44:32;;;;;;;11.70;5.97;;;;;;;18.39;65.07;101621.72;5067929;28;20047;-79
2021/07/21 00:46:58;;;;;;;8.00;4.53;;;;;;;18.37;65.38;101619.19;5075049;28;20057;-79
2021/07/21 00:49:25;;;;;;;7.47;5.10;;;;;;;18.43;65.11;101616.81;5073079;28;20034;-79
2021/07/21 00:51:52;;;;;;;8.18;4.95;;;;;;;18.45;64.96;101614.75;5083257;28;20023;-79
2021/07/21 00:54:17;;;;;;;12.55;4.82;;;;;;;18.68;64.09;101620.44;5068830;28;20111;-79
2021/07/21 00:56:43;;;;;;;11.60;4.70;;;;;;;18.65;64.17;101620.78;5080497;28;20131;-79
2021/07/21 00:59:09;;;;;;;7.63;4.50;;;;;;;18.47;64.96;101620.91;5078487;28;20077;-80
2021/07/21 01:01:34;;;;;;;10.25;5.07;;;;;;;18.27;65.61;101617.59;5072028;28;20024;-79
2021/07/21 01:04:03;;;;;;;8.52;4.85;;;;;;;18.30;65.66;101615.38;5084029;28;20032;-79
2021/07/21 01:06:28;;;;;;;11.40;5.82;;;;;;;18.25;66.00;101614.22;5071866;28;20028;-79
2021/07/21 01:08:54;;;;;;;8.70;5.28;;;;;;;18.21;65.98;101623.69;5078877;28;20497;-79
2021/07/21 01:11:42;;;;;;;10.48;4.85;;;;;;;18.29;65.78;101615.56;5078931;28;20437;-79
2021/07/21 01:14:33;;;;;;;8.68;4.93;;;;;;;18.27;65.83;101613.00;5070740;28;20485;-79
2021/07/21 01:17:01;;;;;;;12.25;5.53;;;;;;;18.23;65.89;101611.63;5077547;28;20041;-80
2021/07/21 01:20:03;;;;;;;8.13;4.88;;;;;;;18.10;66.16;101616.69;5077992;28;20020;-80
2021/07/21 01:22:38;;;;;;;9.07;5.72;;;;;;;17.89;67.01;101619.81;5056788;28;20748;-80
2021/07/21 01:25:13;;;;;;;9.38;5.50;;;;;;;18.04;66.64;101620.06;5077930;28;20052;-79
2021/07/21 01:27:51;;;;;;;6.68;4.97;;;;;;;18.09;66.62;101626.75;5081357;28;20036;-79
2021/07/21 01:30:29;;;;;;;8.60;5.18;;;;;;;18.11;66.21;101619.25;5071340;28;20016;-79
2021/07/21 01:33:09;;;;;;;9.90;5.88;;;;;;;18.14;66.39;101616.19;5079348;28;20027;-79
2021/07/21 01:36:21;;;;;;;12.77;6.13;;;;;;;18.07;66.55;101633.34;5081052;28;20028;-80
2021/07/21 01:38:51;;;;;;;7.63;5.18;;;;;;;17.91;67.22;101626.81;5026435;28;20038;-80
2021/07/21 01:41:29;;;;;;;9.68;6.00;;;;;;;18.20;66.16;101625.56;5079745;28;20033;-79
2021/07/21 01:43:58;;;;;;;10.82;5.35;;;;;;;18.20;66.40;101630.16;5082850;28;20032;-79
2021/07/21 01:46:25;;;;;;;10.75;6.10;;;;;;;18.12;66.74;101628.25;5087626;28;20398;-79
2021/07/21 01:48:54;;;;;;;9.25;5.18;;;;;;;18.22;66.48;101626.28;5077648;28;20028;-80
2021/07/21 01:51:23;;;;;;;11.95;5.75;;;;;;;18.26;66.20;101621.34;5077342;28;20446;-79
2021/07/21 01:53:50;;;;;;;7.68;5.13;;;;;;;18.35;65.95;101623.94;5086551;28;20028;-80
2021/07/21 01:56:16;;;;;;;11.63;6.63;;;;;;;18.13;66.96;101622.66;5073863;28;20395;-80
2021/07/21 01:58:43;;;;;;;20.40;6.28;;;;;;;18.19;67.12;101629.31;5082217;28;20060;-79
2021/07/21 02:01:10;;;;;;;10.80;5.05;;;;;;;18.11;67.33;101632.00;5080978;28;20547;-80
2021/07/21 02:03:41;;;;;;;11.35;5.50;;;;;;;18.20;67.34;101622.84;5075567;28;20037;-80
2021/07/21 02:06:08;;;;;;;10.88;5.90;;;;;;;18.33;66.67;101628.72;5087047;28;20023;-80
2021/07/21 02:08:35;;;;;;;10.80;5.97;;;;;;;18.21;67.11;101623.69;5076106;28;20043;-80
2021/07/21 02:11:05;;;;;;;12.10;6.13;;;;;;;18.24;67.26;101628.81;5079333;28;20028;-80
2021/07/21 02:13:32;;;;;;;12.15;6.25;;;;;;;18.23;67.21;101624.41;5083387;28;20028;-79
2021/07/21 02:15:59;;;;;;;13.20;6.05;;;;;;;18.23;67.60;101627.13;5071754;28;20044;-80
2021/07/21 02:18:25;;;;;;;12.63;5.65;;;;;;;18.29;67.08;101621.88;5086731;28;20021;-79
2021/07/21 02:20:52;;;;;;;10.05;5.90;;;;;;;18.15;67.92;101617.03;5078910;28;20020;-79
2021/07/21 02:23:19;;;;;;;15.15;6.53;;;;;;;18.18;67.90;101622.16;5077567;28;20040;-79
2021/07/21 02:25:46;;;;;;;10.05;6.22;;;;;;;18.18;67.68;101621.31;5085269;28;20024;-79
2021/07/21 02:28:13;;;;;;;12.80;6.45;;;;;;;17.87;68.77;101630.84;5073425;28;20932;-79
2021/07/21 02:30:39;;;;;;;15.23;6.55;;;;;;;18.06;68.25;101623.47;5083783;28;20035;-79
2021/07/21 02:33:15;;;;;;;12.48;5.75;;;;;;;17.96;68.53;101620.88;5079309;28;20036;-79
2021/07/21 02:35:40;;;;;;;15.02;6.28;;;;;;;17.89;68.88;101626.13;5075504;28;20338;-79
2021/07/21 02:38:06;;;;;;;11.13;6.90;;;;;;;17.97;69.09;101629.88;5087053;28;20039;-79
2021/07/21 02:40:32;;;;;;;11.23;7.32;;;;;;;18.03;68.77;101626.50;5075005;28;20051;-80
2021/07/21 02:42:58;;;;;;;20.85;7.90;;;;;;;17.97;68.98;101628.03;5078805;28;20085;-79
2021/07/21 02:45:24;;;;;;;16.77;6.38;;;;;;;18.07;68.58;101620.59;5069009;28;20480;-79
2021/07/21 02:47:50;;;;;;;12.18;6.47;;;;;;;18.17;67.99;101622.34;5083599;28;20031;-79
2021/07/21 02:50:17;;;;;;;13.55;6.35;;;;;;;18.18;67.79;101627.59;5072874;28;20057;-79
2021/07/21 02:53:04;;;;;;;15.20;6.97;;;;;;;18.13;68.37;101632.69;5083854;28;20473;-79
2021/07/21 02:55:32;;;;;;;18.15;6.57;;;;;;;18.14;68.25;101623.50;5081531;28;20499;-79
2021/07/21 02:58:09;;;;;;;10.45;6.22;;;;;;;18.35;67.31;101621.22;5072676;28;20031;-79
2021/07/21 03:00:34;;;;;;;17.02;6.68;;;;;;;18.36;66.92;101627.50;5084069;28;20032;-79
2021/07/21 03:03:05;;;;;;;11.93;6.95;;;;;;;18.30;66.86;101623.56;5078593;28;20024;-79
2021/07/21 03:05:32;;;;;;;10.77;6.28;;;;;;;18.14;67.88;101624.34;5075996;28;20024;-79
2021/07/21 03:07:58;;;;;;;10.80;6.47;;;;;;;18.31;66.91;101627.16;5086623;28;20026;-80
2021/07/21 03:10:24;;;;;;;12.60;6.43;;;;;;;18.08;67.59;101627.72;5073672;28;20095;-80
2021/07/21 03:13:11;;;;;;;12.77;5.63;;;;;;;18.31;66.70;101621.72;5081557;28;20028;-79
2021/07/21 03:15:39;;;;;;;13.23;6.25;;;;;;;18.27;66.89;101614.88;5081522;28;20499;-80
2021/07/21 03:18:10;;;;;;;16.95;7.60;;;;;;;18.15;67.31;101617.03;5072279;28;20060;-79
2021/07/21 03:20:38;;;;;;;14.40;5.72;;;;;;;18.07;67.66;101633.34;5083236;28;20067;-80
2021/07/21 03:23:05;;;;;;;11.48;5.75;;;;;;;18.19;67.10;101642.09;5079018;28;20031;-79
2021/07/21 03:25:32;;;;;;;14.68;6.68;;;;;;;18.07;67.72;101636.94;5075210;28;20082;-79
2021/07/21 03:27:59;;;;;;;10.80;5.63;;;;;;;18.21;67.19;101632.72;5084313;28;20498;-79
2021/07/21 03:30:25;;;;;;;15.98;6.22;;;;;;;18.21;67.09;101626.41;5073069;28;20027;-80
2021/07/21 03:32:53;;;;;;;11.68;6.28;;;;;;;18.19;67.34;101632.03;5081087;28;20031;-79
2021/07/21 03:35:24;;;;;;;12.93;6.45;;;;;;;18.24;67.01;101629.66;5080240;28;20028;-80
2021/07/21 03:37:50;;;;;;;13.07;6.53;;;;;;;18.17;67.51;101625.06;5072640;28;20542;-79
2021/07/21 03:40:18;;;;;;;12.48;5.30;;;;;;;18.27;66.59;101631.22;5085850;28;20044;-79
2021/07/21 03:42:44;;;;;;;10.48;6.47;;;;;;;18.16;67.08;101636.97;5075850;28;20024;-79
2021/07/21 03:45:12;;;;;;;11.63;6.63;;;;;;;17.99;67.52;101636.88;5083884;28;20082;-80
2021/07/21 03:47:40;;;;;;;11.75;6.78;;;;;;;17.75;68.40;101640.28;5072741;28;20024;-79
2021/07/21 03:50:07;;;;;;;11.75;6.57;;;;;;;17.82;68.25;101638.69;5083567;28;20035;-79
2021/07/21 03:52:34;;;;;;;14.05;6.75;;;;;;;17.84;68.54;101646.66;5073999;28;20027;-80
2021/07/21 03:55:02;;;;;;;12.68;5.95;;;;;;;18.04;67.46;101653.59;5077469;28;20119;-80
2021/07/21 03:57:28;;;;;;;10.60;6.15;;;;;;;18.09;67.20;101653.06;5082009;28;20032;-79
2021/07/21 03:59:54;;;;;;;12.02;6.60;;;;;;;18.11;66.74;101661.94;5071333;28;20039;-80
2021/07/21 04:02:20;;;;;;;10.85;6.00;;;;;;;17.92;67.18;101646.72;5085046;28;20392;-80
2021/07/21 04:04:47;;;;;;;14.57;6.93;;;;;;;17.88;67.24;101651.63;5075618;28;20035;-79
2021/07/21 04:07:15;;;;;;;16.05;5.93;;;;;;;18.12;66.12;101645.47;5078199;28;20411;-79
2021/07/21 04:09:41;;;;;;;13.75;6.07;;;;;;;18.10;66.17;101657.53;5081446;28;20024;-79
2021/07/21 04:12:08;;;;;;;10.77;6.35;;;;;;;18.08;66.51;101651.38;5071250;28;20036;-79
2021/07/21 04:14:35;;;;;;;13.20;5.85;;;;;;;18.08;66.37;101659.56;5081854;28;20077;-78
2021/07/21 04:17:01;;;;;;;17.10;6.95;;;;;;;18.05;66.32;101666.16;5075933;28;20032;-76
2021/07/21 04:19:28;;;;;;;12.48;6.72;;;;;;;17.91;66.86;101666.78;5074772;28;20088;-76
2021/07/21 04:21:54;;;;;;;11.93;6.07;;;;;;;17.92;66.62;101674.78;5084091;28;20032;-79
2021/07/21 04:24:21;;;;;;;10.68;6.10;;;;;;;17.83;66.73;101670.31;5055140;28;20115;-79
2021/07/21 04:26:48;;;;;;;11.23;7.07;;;;;;;17.86;66.48;101674.56;5078733;28;20686;-79
2021/07/21 04:29:15;;;;;;;11.77;5.75;;;;;;;18.13;65.56;101676.25;5078629;28;20032;-79
2021/07/21 04:31:43;;;;;;;15.05;7.78;;;;;;;18.05;64.56;101671.63;5072913;28;20027;-79
2021/07/21 04:34:10;;;;;;;11.48;6.97;;;;;;;17.98;64.43;101672.44;5084408;28;20114;-79
2021/07/21 04:36:38;;;;;;;13.13;6.75;;;;;;;18.14;63.95;101672.50;5073862;28;20044;-79
2021/07/21 04:39:04;;;;;;;12.05;6.85;;;;;;;18.01;64.09;101663.94;5078917;28;20028;-79
2021/07/21 04:41:31;;;;;;;10.68;7.45;;;;;;;17.88;63.87;101670.69;5080503;28;20038;-79
2021/07/21 04:43:57;;;;;;;14.18;8.07;;;;;;;17.93;63.92;101672.91;5068792;28;20029;-79
2021/07/21 04:46:22;;;;;;;14.65;7.95;;;;;;;17.98;63.73;101667.00;5071412;28;20077;-79
2021/07/21 04:48:48;;;;;;;16.58;9.02;;;;;;;18.02;62.90;101668.38;5077774;28;20658;-79
2021/07/21 04:51:16;;;;;;;13.32;8.40;;;;;;;18.06;62.47;101669.75;5078232;28;20107;-79
2021/07/21 04:53:42;;;;;;;17.05;7.72;;;;;;;18.04;62.79;101675.34;5072841;28;20081;-79
2021/07/21 04:56:08;;;;;;;14.38;8.38;;;;;;;18.24;61.62;101678.69;5084370;28;20031;-79
2021/07/21 04:58:33;;;;;;;13.07;8.98;;;;;;;18.01;62.11;101680.28;5071000;28;20028;-79
2021/07/21 05:00:59;;;;;;;15.65;9.40;;;;;;;18.18;61.77;101687.50;5076575;28;20071;-79
2021/07/21 05:03:24;;;;;;;11.23;8.82;;;;;;;18.07;61.26;101677.75;5079400;28;20031;-79
2021/07/21 05:05:49;;;;;;;15.10;9.13;;;;;;;18.16;60.84;101681.38;5071760;28;20078;-79
2021/07/21 05:08:15;;;;;;;15.75;10.15;;;;;;;17.98;60.78;101686.91;5084187;28;20028;-79
2021/07/21 05:10:43;;;;;;;11.57;9.38;;;;;;;18.29;60.24;101679.06;5074669;28;20027;-79
2021/07/21 05:13:09;;;;;;;14.52;9.60;;;;;;;18.01;60.58;101683.84;5077127;28;20046;-79
2021/07/21 05:15:35;;;;;;;13.07;9.70;;;;;;;18.21;60.75;101680.88;5080607;28;20486;-79
2021/07/21 05:18:01;;;;;;;15.85;10.98;;;;;;;18.05;60.29;101687.09;5069947;28;20491;-79
2021/07/21 05:20:26;;;;;;;14.05;10.35;;;;;;;18.01;59.97;101689.28;5082512;28;20027;-79
2021/07/21 05:22:51;;;;;;;17.77;10.75;;;;;;;17.91;59.90;101686.69;5074590;28;20030;-79
2021/07/21 05:25:18;;;;;;;11.95;9.88;;;;;;;18.05;59.64;101690.66;5075578;28;20024;-79
2021/07/21 05:27:44;;;;;;;13.43;9.50;;;;;;;17.99;59.49;101706.78;5082798;28;20070;-79
2021/07/21 05:30:11;;;;;;;14.45;10.13;;;;;;;18.29;59.08;101702.72;5070191;28;20054;-79
2021/07/21 05:32:37;;;;;;;14.05;10.38;;;;;;;18.27;59.20;101700.13;5080836;28;20036;-79
2021/07/21 05:35:03;;;;;;;11.93;8.77;;;;;;;18.24;59.31;101697.72;5076256;28;20032;-79
2021/07/21 05:37:29;;;;;;;16.17;9.40;;;;;;;18.64;58.45;101690.78;5073508;28;20032;-79
2021/07/21 05:39:54;;;;;;;13.20;9.48;;;;;;;18.86;57.37;101685.75;5083426;28;20035;-79
2021/07/21 05:42:20;;;;;;;12.82;9.30;;;;;;;18.98;57.07;101688.00;5083790;28;20029;-79
2021/07/21 05:44:45;;;;;;;13.90;8.93;;;;;;;18.90;57.19;101689.84;5067378;28;20040;-79
2021/07/21 05:47:10;;;;;;;16.33;10.40;;;;;;;19.10;57.09;101690.38;5077738;28;20122;-79
2021/07/21 05:49:36;;;;;;;11.85;8.52;;;;;;;19.21;56.43;101693.63;5072512;28;20060;-79
2021/07/21 05:52:04;;;;;;;11.57;9.10;;;;;;;19.06;56.04;101700.78;5081957;28;20028;-79
2021/07/21 05:54:29;;;;;;;12.27;9.68;;;;;;;19.22;56.02;101697.19;5071349;28;20031;-79
2021/07/21 05:56:55;;;;;;;12.85;9.63;;;;;;;19.37;55.63;101700.13;5078160;28;20025;-79
2021/07/21 05:59:20;;;;;;;11.55;9.40;;;;;;;19.20;55.75;101697.38;5076964;28;20139;-79
2021/07/21 06:01:45;;;;;;;19.58;8.95;;;;;;;19.20;56.13;101707.44;5072564;28;20132;-79
2021/07/21 06:04:11;;;;;;;12.73;9.13;;;;;;;19.10;56.19;101713.06;5083369;28;20035;-79
2021/07/21 06:06:36;;;;;;;14.70;9.40;;;;;;;18.96;55.96;101713.72;5072824;28;20052;-79
2021/07/21 06:09:04;;;;;;;13.27;9.60;;;;;;;19.20;55.62;101712.91;5077327;28;20106;-80
2021/07/21 06:11:29;;;;;;;11.57;9.80;;;;;;;19.40;55.45;101707.97;5078397;28;20023;-80
2021/07/21 06:13:58;;;;;;;12.75;9.13;;;;;;;19.39;54.58;101726.22;5069764;28;20039;-80
2021/07/21 06:16:24;;;;;;;15.60;9.27;;;;;;;19.18;54.34;101715.78;5083320;28;20052;-79
2021/07/21 06:18:49;;;;;;;18.00;9.45;;;;;;;19.22;54.38;101727.19;5074967;28;20039;-79
2021/07/21 06:21:15;;;;;;;11.57;8.95;;;;;;;19.55;53.91;101728.09;5076913;28;20079;-80
2021/07/21 06:23:40;;;;;;;11.98;10.02;;;;;;;19.74;53.57;101726.91;5082280;28;20088;-79
2021/07/21 06:26:05;;;;;;;16.92;11.15;;;;;;;19.67;53.49;101715.81;5075276;28;20028;-80
2021/07/21 06:28:31;;;;;;;11.70;9.35;;;;;;;19.54;53.24;101720.94;5085229;28;20029;-79
2021/07/21 06:30:56;;;;;;;10.98;9.52;;;;;;;19.76;53.03;101729.47;5078818;28;20024;-79
2021/07/21 06:33:22;;;;;;;12.50;9.38;;;;;;;19.59;53.08;101731.31;5076934;28;20028;-79
2021/07/21 06:35:49;;;;;;;17.08;10.18;;;;;;;19.63;53.52;101736.28;5087011;28;20028;-79
2021/07/21 06:38:15;;;;;;;11.73;8.75;;;;;;;19.93;52.73;101737.47;5073417;28;20027;-79
2021/07/21 06:40:40;;;;;;;11.30;9.45;;;;;;;19.45;53.15;101741.91;5083734;28;20093;-79
2021/07/21 06:43:06;;;;;;;10.85;8.98;;;;;;;19.65;53.09;101745.19;5078051;28;20027;-79
2021/07/21 06:45:31;;;;;;;11.48;8.60;;;;;;;19.41;53.57;101736.97;5085952;28;20024;-79
2021/07/21 06:47:57;;;;;;;12.32;8.13;;;;;;;19.21;53.69;101748.16;5073469;28;20024;-79
2021/07/21 06:50:23;;;;;;;11.88;9.45;;;;;;;19.50;53.24;101735.94;5086265;28;20042;-80
2021/07/21 06:52:49;;;;;;;10.93;9.38;;;;;;;19.63;53.27;101738.16;5076649;28;20023;-79
2021/07/21 06:55:15;;;;;;;9.55;8.38;;;;;;;19.80;52.71;101733.56;5079119;28;20028;-79
2021/07/21 06:57:40;;;;;;;11.45;8.27;;;;;;;19.88;52.70;101739.03;5084544;28;20036;-79
2021/07/21 07:00:07;;;;;;;12.57;8.18;;;;;;;19.73;52.60;101739.72;5072986;28;20042;-79
2021/07/21 07:02:32;;;;;;;12.25;7.85;;;;;;;19.98;52.34;101737.78;5084123;28;20467;-80
2021/07/21 07:04:57;;;;;;;18.75;9.43;;;;;;;19.69;52.89;101737.50;5077875;28;20039;-79
2021/07/21 07:07:23;;;;;;;10.50;8.48;;;;;;;20.01;52.62;101742.06;5075551;28;20031;-79
2021/07/21 07:09:49;;;;;;;11.25;8.55;;;;;;;19.86;52.77;101746.53;5086500;28;20051;-79
2021/07/21 07:12:15;;;;;;;10.70;8.90;;;;;;;19.82;52.62;101750.63;5072614;28;20056;-79
2021/07/21 07:14:41;;;;;;;11.10;8.18;;;;;;;19.70;53.13;101742.78;5083077;28;20087;-79
2021/07/21 07:17:06;;;;;;;12.02;8.18;;;;;;;19.69;53.42;101746.53;5080123;28;20087;-79
2021/07/21 07:19:32;;;;;;;8.65;7.55;;;;;;;20.09;52.61;101747.53;5075872;28;20539;-79
2021/07/21 07:21:59;;;;;;;9.88;7.20;;;;;;;20.06;52.44;101745.13;5084456;28;20031;-79
2021/07/21 07:24:25;;;;;;;8.18;7.35;;;;;;;20.24;51.91;101744.09;5074370;28;20023;-79
2021/07/21 07:26:50;;;;;;;9.50;7.03;;;;;;;20.36;51.28;101756.34;5080603;28;20063;-79
2021/07/21 07:29:16;;;;;;;9.27;7.03;;;;;;;20.48;50.95;101752.19;5080629;28;20036;-79
2021/07/21 07:31:41;;;;;;;9.35;6.47;;;;;;;20.44;51.25;101756.28;5074735;28;20025;-79
2021/07/21 07:34:06;;;;;;;7.03;5.35;;;;;;;20.18;51.10;101756.56;5084649;28;20035;-79
2021/07/21 07:36:32;;;;;;;9.73;5.47;;;;;;;20.07;51.13;101759.63;5073692;28;20028;-80
2021/07/21 07:38:57;;;;;;;6.60;5.72;;;;;;;20.18;51.14;101764.75;5078648;28;20111;-79
2021/07/21 07:41:22;;;;;;;7.07;5.85;;;;;;;20.55;51.21;101757.84;5080358;28;20028;-80
2021/07/21 07:43:49;;;;;;;7.88;5.85;;;;;;;20.48;51.35;101763.13;5072349;28;20024;-79
2021/07/21 07:46:28;;;;;;;9.45;5.80;;;;;;;20.41;51.16;101765.69;5070564;28;20027;-87
2021/07/21 07:48:54;;;;;;;9.20;6.13;;;;;;;20.50;52.50;101763.78;5079841;28;20028;-81
2021/07/21 07:51:21;;;;;;;8.30;6.95;;;;;;;20.52;52.28;101769.13;5079610;28;20031;-80
2021/07/21 07:53:47;;;;;;;11.98;6.97;;;;;;;20.42;52.42;101767.41;5070546;28;20036;-80
2021/07/21 07:56:12;;;;;;;9.73;6.97;;;;;;;20.44;52.13;101768.06;5084702;28;20040;-80
2021/07/21 07:58:38;;;;;;;10.38;6.82;;;;;;;20.77;52.12;101773.47;5074091;28;20035;-81
2021/07/21 08:01:03;;;;;;;8.07;6.85;;;;;;;20.96;51.36;101777.63;5078682;28;20504;-81
2021/07/21 08:03:28;;;;;;;11.18;7.78;;;;;;;20.81;51.75;101774.78;5081273;28;20031;-81
2021/07/21 08:05:55;;;;;;;12.10;8.30;;;;;;;20.84;52.13;101773.59;5070902;28;20028;-81
2021/07/21 08:08:21;;;;;;;9.82;7.60;;;;;;;20.27;52.63;101774.63;5084049;28;20103;-81
2021/07/21 08:10:47;;;;;;;8.25;7.10;;;;;;;19.96;54.21;101779.97;5067374;28;20115;-81
2021/07/21 08:13:12;;;;;;;13.10;7.38;;;;;;;19.75;54.94;101777.75;5078480;28;20038;-81
2021/07/21 08:15:37;;;;;;;8.25;6.53;;;;;;;19.55;55.43;101779.94;5071636;28;20048;-81
2021/07/21 08:18:03;;;;;;;8.50;5.78;;;;;;;19.65;55.26;101785.25;5084732;28;20031;-81
2021/07/21 08:20:28;;;;;;;4.80;4.05;;;;;;;20.10;53.98;101792.06;5069617;28;20043;-81
2021/07/21 08:22:53;;;;;;;4.85;4.03;;;;;;;20.36;53.62;101789.13;5078672;28;20133;-81
2021/07/21 08:25:19;;;;;;;8.50;4.25;;;;;;;20.77;52.64;101784.38;5078046;28;20024;-81
2021/07/21 08:27:45;;;;;;;6.15;4.13;;;;;;;20.60;53.13;101788.22;5071144;28;20050;-81
2021/07/21 08:30:12;;;;;;;4.28;3.75;;;;;;;20.69;52.91;101791.78;5086687;28;20032;-81
2021/07/21 08:32:42;;;;;;;4.95;3.75;;;;;;;20.93;52.53;101794.41;5083552;28;20024;-81
2021/07/21 08:35:12;;;;;;;4.90;4.40;;;;;;;21.13;50.30;101788.50;5071944;28;20398;-81
2021/07/21 08:37:39;;;;;;;4.38;3.55;;;;;;;21.17;50.62;101795.31;5083988;28;20031;-81
2021/07/21 08:40:07;;;;;;;7.53;4.30;;;;;;;21.17;50.39;101789.84;5071917;28;20032;-81
2021/07/21 08:42:33;;;;;;;6.28;4.40;;;;;;;21.31;50.02;101786.34;5080424;28;20422;-81
2021/07/21 08:44:58;;;;;;;10.07;4.60;;;;;;;21.48;49.89;101790.69;5069922;28;20036;-81
2021/07/21 08:47:24;;;;;;;6.30;4.93;;;;;;;21.34;50.02;101791.44;5080789;28;20093;-81
2021/07/21 08:49:50;;;;;;;8.35;5.55;;;;;;;20.69;51.70;101803.56;5070470;28;20072;-81
2021/07/21 08:52:17;;;;;;;6.07;5.50;;;;;;;20.53;52.12;101795.41;5085304;28;20046;-81
2021/07/21 08:54:46;;;;;;;10.00;6.47;;;;;;;20.44;52.74;101800.84;5074805;28;20066;-81
2021/07/21 08:57:13;;;;;;;7.78;5.70;;;;;;;20.69;52.33;101797.25;5077040;28;20038;-81
2021/07/21 08:59:42;;;;;;;10.65;6.05;;;;;;;20.88;51.95;101805.03;5067651;28;20465;-81
2021/07/21 09:02:10;;;;;;;13.43;6.70;;;;;;;20.91;51.64;101804.69;5084915;28;20039;-81
2021/07/21 09:04:35;;;;;;;7.57;6.55;;;;;;;21.23;51.07;101808.28;5075506;28;20556;-81
2021/07/21 09:07:01;;;;;;;14.65;7.00;;;;;;;21.11;50.76;101814.13;5077810;28;20384;-81
2021/07/21 09:09:26;;;;;;;8.75;6.53;;;;;;;21.21;50.84;101810.31;5081438;28;20443;-81
2021/07/21 09:11:52;;;;;;;13.50;6.63;;;;;;;21.03;51.30;101814.19;5071664;28;20098;-81
2021/07/21 09:14:17;;;;;;;12.43;7.25;;;;;;;20.96;51.09;101815.06;5084065;28;20088;-81
2021/07/21 09:16:42;;;;;;;12.38;6.63;;;;;;;20.86;51.54;101818.03;5072463;28;20391;-81
2021/07/21 09:19:11;;;;;;;12.07;7.55;;;;;;;20.81;51.96;101807.59;5077548;28;20087;-81
2021/07/21 09:21:36;;;;;;;9.60;6.65;;;;;;;21.04;52.00;101812.31;5081544;28;20024;-81
2021/07/21 09:24:02;;;;;;;8.00;6.05;;;;;;;20.97;51.71;101822.28;5069262;28;20434;-81
2021/07/21 09:26:27;;;;;;;8.93;7.28;;;;;;;21.02;51.03;101819.81;5084222;28;20032;-81
2021/07/21 09:28:54;;;;;;;11.07;6.57;;;;;;;20.69;51.16;101819.94;5077405;28;20035;-81
2021/07/21 09:31:33;;;;;;;11.45;6.47;;;;;;;20.86;51.41;101823.50;5090895;28;20278;-81
2021/07/21 09:33:58;;;;;;;8.10;6.75;;;;;;;20.39;52.38;101832.50;5071641;28;20518;-81
2021/07/21 09:36:24;;;;;;;15.50;6.85;;;;;;;20.37;53.68;101824.44;5084654;28;20056;-81
2021/07/21 09:38:59;;;;;;;9.20;6.72;;;;;;;20.44;54.11;101821.88;5075461;28;20106;-81
2021/07/21 09:41:24;;;;;;;10.35;7.25;;;;;;;20.50;54.02;101818.44;5073392;28;20075;-81
2021/07/21 09:43:58;;;;;;;8.15;7.05;;;;;;;20.53;54.37;101820.00;5079987;28;20017;-81
2021/07/21 09:46:24;;;;;;;12.57;7.15;;;;;;;20.44;53.86;101830.06;5055358;28;20012;-81
2021/07/21 09:48:49;;;;;;;12.77;7.20;;;;;;;20.51;53.90;101822.91;5079388;28;20040;-81
2021/07/21 09:51:30;;;;;;;11.45;7.90;;;;;;;20.33;54.66;101825.00;5070377;28;20025;-81
2021/07/21 09:54:10;;;;;;;12.35;7.60;;;;;;;20.46;54.69;101821.72;5067306;28;20040;-81
2021/07/21 09:56:35;;;;;;;12.80;7.65;;;;;;;20.49;55.05;101838.63;5082126;28;20055;-81
2021/07/21 09:59:30;;;;;;;12.43;7.85;;;;;;;20.42;56.84;101843.06;5079311;28;20028;-81
2021/07/21 10:01:56;;;;;;;11.32;8.45;;;;;;;19.68;60.15;101845.81;5075810;28;20038;-81
2021/07/21 10:04:36;;;;;;;13.82;9.43;;;;;;;19.85;63.41;101854.03;5087947;28;20423;-81
2021/07/21 10:07:12;;;;;;;11.85;8.73;;;;;;;19.47;62.33;101842.69;5081005;28;20082;-81
2021/07/21 10:09:38;;;;;;;9.85;6.80;;;;;;;19.56;62.95;101847.16;5076728;28;20034;-81
2021/07/21 10:12:14;;;;;;;10.07;5.60;;;;;;;19.59;61.63;101837.75;5087109;28;20024;-81
2021/07/21 10:14:52;;;;;;;6.60;5.40;;;;;;;19.86;59.45;101840.19;5083912;28;20044;-81
2021/07/21 10:17:18;;;;;;;7.75;5.05;;;;;;;20.09;58.46;101842.25;5082357;28;20081;-81
2021/07/21 10:19:43;;;;;;;7.95;5.25;;;;;;;20.28;56.87;101849.22;5076101;28;20028;-81
2021/07/21 10:22:09;;;;;;;9.15;5.82;;;;;;;20.51;56.98;101838.41;5085590;28;20750;-81
2021/07/21 10:24:35;;;;;;;7.53;5.22;;;;;;;20.63;56.72;101837.06;5075846;28;20544;-81
2021/07/21 10:27:01;;;;;;;8.70;5.20;;;;;;;21.03;55.46;101837.97;5081153;28;20039;-81
2021/07/21 10:29:27;;;;;;;7.97;4.85;;;;;;;21.21;54.11;101834.94;5083698;28;20023;-81
2021/07/21 10:31:54;;;;;;;5.03;4.20;;;;;;;21.59;52.88;101832.38;5072108;28;20530;-81
2021/07/21 10:34:22;;;;;;;9.98;4.95;;;;;;;21.79;51.34;101831.72;5057628;28;20028;-81
2021/07/21 10:36:48;;;;;;;6.30;4.40;;;;;;;22.27;51.04;101828.75;5082929;28;20115;-81
2021/07/21 10:39:18;;;;;;;5.95;4.20;;;;;;;22.24;51.10;101820.88;5081871;28;20395;-81
2021/07/21 10:41:46;;;;;;;7.45;4.78;;;;;;;22.32;50.83;101823.56;5074814;28;20033;-81
2021/07/21 10:44:13;;;;;;;5.95;4.07;;;;;;;22.49;49.83;101818.75;5085000;28;20020;-81
2021/07/21 10:46:47;;;;;;;5.43;4.38;;;;;;;22.40;50.59;101826.19;5084719;28;20439;-81
2021/07/21 10:49:39;;;;;;;5.45;4.78;;;;;;;22.18;50.93;101821.63;5081439;28;20066;-81
2021/07/21 10:55:16;;;;;;;6.88;5.57;;;;;;;21.61;52.11;101816.59;5083484;28;20039;-81
2021/07/21 11:00:23;;;;;;;6.00;5.00;;;;;;;21.02;50.95;101823.41;5056836;28;20034;-81
2021/07/21 11:02:50;;;;;;;7.40;6.13;;;;;;;21.01;51.33;101835.38;5086480;28;20278;-82
2021/07/21 11:05:36;;;;;;;7.45;5.40;;;;;;;21.21;51.75;101829.47;5082343;28;20032;-81
2021/07/21 11:08:04;;;;;;;7.50;5.80;;;;;;;21.42;51.74;101829.72;5071118;28;20030;-81
2021/07/21 11:10:39;;;;;;;9.20;5.65;;;;;;;21.53;49.88;101823.00;5084463;28;20044;-81
2021/07/21 11:13:08;;;;;;;7.97;5.68;;;;;;;21.50;49.79;101816.00;5078904;28;20070;-81
2021/07/21 11:15:47;;;;;;;7.80;5.22;;;;;;;21.78;49.36;101818.19;5074981;28;20483;-81
2021/07/21 11:18:21;;;;;;;11.85;6.10;;;;;;;21.86;50.09;101823.59;5085572;28;20447;-81
2021/07/21 11:21:02;;;;;;;10.57;5.88;;;;;;;22.17;49.92;101814.47;5076938;28;20097;-81
2021/07/21 11:23:48;;;;;;;8.57;5.35;;;;;;;22.03;49.03;101813.34;5074902;28;20040;-81
2021/07/21 11:26:36;;;;;;;15.98;6.53;;;;;;;21.86;48.90;101820.88;5088682;28;20503;-81
2021/07/21 11:29:42;;;;;;;12.43;6.47;;;;;;;21.59;49.31;101824.16;5079886;28;20103;-81
2021/07/21 11:32:11;;;;;;;12.20;7.03;;;;;;;21.21;50.41;101830.34;5085180;28;20031;-81